createdAt,value
2023-03-27T00:01:38.886Z,8.07
2023-03-27T00:03:42.648Z,8.10
2023-03-27T00:05:45.880Z,7.97
2023-03-27T00:07:49.514Z,7.81
2023-03-27T00:09:53.421Z,7.85
2023-03-27T00:11:56.299Z,7.84
2023-03-27T00:13:59.170Z,7.87
2023-03-27T00:16:05.256Z,7.77
2023-03-27T00:18:08.346Z,7.70
2023-03-27T00:20:11.396Z,7.62
2023-03-27T00:22:14.135Z,7.57
2023-03-27T00:24:17.252Z,7.53
2023-03-27T00:26:21.436Z,7.48
2023-03-27T00:28:27.144Z,7.42
2023-03-27T00:30:31.840Z,7.43
2023-03-27T00:32:36.255Z,7.41
2023-03-27T00:34:39.046Z,7.37
2023-03-27T00:36:43.616Z,7.47
2023-03-27T00:38:46.777Z,7.37
2023-03-27T00:40:50.743Z,7.31
2023-03-27T00:42:57.551Z,7.28
2023-03-27T00:45:00.488Z,7.23
2023-03-27T00:47:05.080Z,7.18
2023-03-27T00:49:11.797Z,7.24
2023-03-27T00:51:15.748Z,7.20
2023-03-27T00:53:22.639Z,7.28
2023-03-27T00:55:29.444Z,7.33
2023-03-27T00:57:32.356Z,7.23
2023-03-27T00:59:41.350Z,7.31
2023-03-27T01:01:45.643Z,7.28
2023-03-27T01:03:50.466Z,7.19
2023-03-27T01:05:57.007Z,7.25
2023-03-27T01:08:01.928Z,7.13
2023-03-27T01:10:08.629Z,7.12
2023-03-27T01:12:21.490Z,7.09
2023-03-27T01:14:32.667Z,7.18
2023-03-27T01:16:42.958Z,7.14
2023-03-27T01:18:55.752Z,7.14
2023-03-27T01:21:30.669Z,7.19
2023-03-27T01:23:59.811Z,7.27
2023-03-27T01:26:46.920Z,7.20
2023-03-27T01:28:56.008Z,7.30
2023-03-27T01:31:06.609Z,7.17
2023-03-27T01:33:35.123Z,7.21
2023-03-27T01:35:58.310Z,7.10
2023-03-27T01:38:25.832Z,7.09
2023-03-27T01:40:34.043Z,7.01
2023-03-27T01:42:41.376Z,6.97
2023-03-27T01:44:49.319Z,6.94
2023-03-27T01:46:56.593Z,7.10
2023-03-27T01:49:05.679Z,7.22
2023-03-27T01:51:14.674Z,7.07
2023-03-27T01:53:23.903Z,7.03
2023-03-27T01:55:31.374Z,6.97
2023-03-27T01:57:49.691Z,6.86
2023-03-27T01:59:58.625Z,6.79
2023-03-27T02:02:27.093Z,6.92
2023-03-27T02:04:38.396Z,6.81
2023-03-27T02:06:47.027Z,6.55
2023-03-27T02:08:56.131Z,6.45
2023-03-27T02:11:01.204Z,6.55
2023-03-27T02:13:10.049Z,6.49
2023-03-27T02:15:26.215Z,6.51
2023-03-27T02:17:35.017Z,6.39
2023-03-27T02:19:43.407Z,6.29
2023-03-27T02:21:48.031Z,6.32
2023-03-27T02:23:51.662Z,6.42
2023-03-27T02:25:55.105Z,6.19
2023-03-27T02:28:29.200Z,6.18
2023-03-27T02:30:41.187Z,6.13
2023-03-27T02:32:53.633Z,5.98
2023-03-27T02:35:18.536Z,5.90
2023-03-27T02:37:32.410Z,6.07
2023-03-27T02:40:02.075Z,6.00
2023-03-27T02:42:12.552Z,5.88
2023-03-27T02:44:30.421Z,5.77
2023-03-27T02:46:40.493Z,5.67
2023-03-27T02:48:47.280Z,5.59
2023-03-27T02:50:55.890Z,5.57
2023-03-27T02:53:02.898Z,5.56
2023-03-27T02:55:10.400Z,5.53
2023-03-27T02:57:18.760Z,5.40
2023-03-27T02:59:52.257Z,5.44
2023-03-27T03:01:55.915Z,5.46
2023-03-27T03:04:04.846Z,5.35
2023-03-27T03:06:29.987Z,5.40
2023-03-27T03:08:38.502Z,5.50
2023-03-27T03:10:46.017Z,5.48
2023-03-27T03:12:49.366Z,5.47
2023-03-27T03:14:53.623Z,5.20
2023-03-27T03:16:56.429Z,5.25
2023-03-27T03:18:59.306Z,5.24
2023-03-27T03:21:02.197Z,5.33
2023-03-27T03:23:05.265Z,5.30
2023-03-27T03:25:09.540Z,5.17
2023-03-27T03:27:14.198Z,5.20
2023-03-27T03:29:36.834Z,5.27
2023-03-27T03:31:50.189Z,5.19
2023-03-27T03:33:53.181Z,5.07
2023-03-27T03:35:58.885Z,5.04
2023-03-27T03:38:07.424Z,4.94
2023-03-27T03:40:22.187Z,4.88
2023-03-27T03:42:30.845Z,4.93
2023-03-27T03:44:34.516Z,4.94
2023-03-27T03:46:46.917Z,4.72
2023-03-27T03:48:59.250Z,4.82
2023-03-27T03:51:02.333Z,4.76
2023-03-27T03:53:05.512Z,4.75
2023-03-27T03:55:11.714Z,4.64
2023-03-27T03:57:15.015Z,4.60
2023-03-27T03:59:21.281Z,4.70
2023-03-27T04:01:42.942Z,4.78
2023-03-27T04:03:46.266Z,4.85
2023-03-27T04:05:50.877Z,4.54
2023-03-27T04:07:53.907Z,4.62
2023-03-27T04:10:01.486Z,4.52
2023-03-27T04:12:04.693Z,4.65
2023-03-27T04:14:24.356Z,4.40
2023-03-27T04:16:29.669Z,4.53
2023-03-27T04:18:35.295Z,4.49
2023-03-27T04:20:43.035Z,4.47
2023-03-27T04:22:53.137Z,4.47
2023-03-27T04:24:57.284Z,4.64
2023-03-27T04:27:01.715Z,4.54
2023-03-27T04:29:14.878Z,4.28
2023-03-27T04:31:35.917Z,4.20
2023-03-27T04:34:02.973Z,4.28
2023-03-27T04:36:25.491Z,4.18
2023-03-27T04:38:45.624Z,4.24
2023-03-27T04:40:51.581Z,4.26
2023-03-27T04:42:55.876Z,4.42
2023-03-27T04:44:58.956Z,4.41
2023-03-27T04:47:02.329Z,4.42
2023-03-27T04:49:06.016Z,4.34
2023-03-27T04:51:32.516Z,4.39
2023-03-27T04:53:37.781Z,4.31
2023-03-27T04:55:43.135Z,4.32
2023-03-27T04:57:46.995Z,4.18
2023-03-27T04:59:50.213Z,4.18
2023-03-27T05:02:13.257Z,4.31
2023-03-27T05:04:26.388Z,4.30
2023-03-27T05:06:49.260Z,4.27
2023-03-27T05:08:54.071Z,4.12
2023-03-27T05:11:08.706Z,4.12
2023-03-27T05:13:16.956Z,4.21
2023-03-27T05:15:21.768Z,4.09
2023-03-27T05:17:25.797Z,4.16
2023-03-27T05:19:29.176Z,4.10
2023-03-27T05:21:35.357Z,4.04
2023-03-27T05:23:38.840Z,4.15
2023-03-27T05:25:45.294Z,4.16
2023-03-27T05:28:11.231Z,4.13
2023-03-27T05:30:15.884Z,4.10
2023-03-27T05:32:18.839Z,4.08
2023-03-27T05:34:27.085Z,4.26
2023-03-27T05:36:31.526Z,4.24
2023-03-27T05:38:34.691Z,4.15
2023-03-27T05:40:47.984Z,4.08
2023-03-27T05:42:54.822Z,4.13
2023-03-27T05:45:00.002Z,4.04
2023-03-27T05:47:03.917Z,4.22
2023-03-27T05:49:08.034Z,4.15
2023-03-27T05:51:10.855Z,4.05
2023-03-27T05:53:15.664Z,4.02
2023-03-27T05:56:03.029Z,3.99
2023-03-27T05:58:14.336Z,4.12
2023-03-27T06:00:25.003Z,4.08
2023-03-27T06:02:29.845Z,4.15
2023-03-27T06:04:36.150Z,4.15
2023-03-27T06:06:46.298Z,4.19
2023-03-27T06:08:49.734Z,4.21
2023-03-27T06:10:52.625Z,4.15
2023-03-27T06:13:09.964Z,4.17
2023-03-27T06:15:25.826Z,4.27
2023-03-27T06:18:04.394Z,4.31
2023-03-27T06:20:15.210Z,4.33
2023-03-27T06:22:25.111Z,4.26
2023-03-27T06:24:27.984Z,4.34
2023-03-27T06:26:31.022Z,4.22
2023-03-27T06:28:39.155Z,4.34
2023-03-27T06:30:43.627Z,4.71
2023-03-27T06:33:21.503Z,4.48
2023-03-27T06:35:27.210Z,4.55
2023-03-27T06:37:36.940Z,4.65
2023-03-27T06:39:40.326Z,4.72
2023-03-27T06:41:43.329Z,4.68
2023-03-27T06:44:07.010Z,4.90
2023-03-27T06:46:27.569Z,4.92
2023-03-27T06:48:51.989Z,4.89
2023-03-27T06:50:56.064Z,4.76
2023-03-27T06:52:59.893Z,4.74
2023-03-27T06:55:15.314Z,4.75
2023-03-27T06:57:26.398Z,4.82
2023-03-27T06:59:32.854Z,4.70
2023-03-27T07:01:39.702Z,4.79
2023-03-27T07:04:01.081Z,4.88
2023-03-27T07:06:22.233Z,5.08
2023-03-27T07:08:33.246Z,5.07
2023-03-27T07:10:36.606Z,5.15
2023-03-27T07:12:40.058Z,5.04
2023-03-27T07:14:42.929Z,5.14
2023-03-27T07:16:47.328Z,5.22
2023-03-27T07:18:50.812Z,5.19
2023-03-27T07:20:53.687Z,5.34
2023-03-27T07:23:00.650Z,5.21
2023-03-27T07:25:37.093Z,5.46
2023-03-27T07:27:42.644Z,5.36
2023-03-27T07:29:45.945Z,5.63
2023-03-27T07:31:57.919Z,5.33
2023-03-27T07:34:24.089Z,5.44
2023-03-27T07:36:45.404Z,5.58
2023-03-27T07:38:48.221Z,5.79
2023-03-27T07:41:06.159Z,5.56
2023-03-27T07:43:35.268Z,5.66
2023-03-27T07:45:38.919Z,5.50
2023-03-27T07:47:44.453Z,5.69
2023-03-27T07:49:48.094Z,5.75
2023-03-27T07:51:56.375Z,5.87
2023-03-27T07:54:01.209Z,5.83
2023-03-27T07:56:10.484Z,5.87
2023-03-27T07:58:14.227Z,6.02
2023-03-27T08:00:22.739Z,6.20
2023-03-27T08:02:37.720Z,6.32
2023-03-27T08:04:42.285Z,6.22
2023-03-27T08:06:46.542Z,6.21
2023-03-27T08:08:54.834Z,6.20
2023-03-27T08:11:02.329Z,6.15
2023-03-27T08:13:12.496Z,6.32
2023-03-27T08:15:15.826Z,6.43
2023-03-27T08:17:20.615Z,6.61
2023-03-27T08:19:25.158Z,6.72
2023-03-27T08:21:35.311Z,6.87
2023-03-27T08:23:38.711Z,6.90
2023-03-27T08:25:44.150Z,6.95
2023-03-27T08:27:47.025Z,7.03
2023-03-27T08:29:51.630Z,7.20
2023-03-27T08:31:54.682Z,7.22
2023-03-27T08:33:58.164Z,7.41
2023-03-27T08:36:04.732Z,7.33
2023-03-27T08:38:23.743Z,7.43
2023-03-27T08:40:59.891Z,7.39
2023-03-27T08:43:14.710Z,7.49
2023-03-27T08:45:24.691Z,7.54
2023-03-27T08:47:35.096Z,7.37
2023-03-27T08:49:48.303Z,7.34
2023-03-27T08:52:07.058Z,7.27
2023-03-27T08:54:18.117Z,7.36
2023-03-27T08:56:23.285Z,7.50
2023-03-27T08:58:28.523Z,7.71
2023-03-27T09:00:48.155Z,7.65
2023-03-27T09:03:05.917Z,7.68
2023-03-27T09:05:15.414Z,7.75
2023-03-27T09:07:29.005Z,7.85
2023-03-27T09:09:55.756Z,7.70
2023-03-27T09:12:09.753Z,7.69
2023-03-27T09:14:31.071Z,7.90
2023-03-27T09:16:39.640Z,7.92
2023-03-27T09:18:48.880Z,7.92
2023-03-27T09:21:04.085Z,7.74
2023-03-27T09:23:18.132Z,7.54
2023-03-27T09:25:48.622Z,7.50
2023-03-27T09:27:58.506Z,7.19
2023-03-27T09:30:21.963Z,6.95
2023-03-27T09:32:33.469Z,6.89
2023-03-27T09:34:37.521Z,7.02
2023-03-27T09:36:40.640Z,7.12
2023-03-27T09:38:50.425Z,7.21
2023-03-27T09:41:03.756Z,7.44
2023-03-27T09:43:17.468Z,7.21
2023-03-27T09:45:21.631Z,7.13
2023-03-27T09:47:37.538Z,6.99
2023-03-27T09:49:45.461Z,7.04
2023-03-27T09:51:54.932Z,7.15
2023-03-27T09:54:12.765Z,7.30
2023-03-27T09:56:17.388Z,7.33
2023-03-27T09:58:32.281Z,7.19
2023-03-27T10:00:36.877Z,7.41
2023-03-27T10:02:41.554Z,7.42
2023-03-27T10:04:59.755Z,7.60
2023-03-27T10:07:10.178Z,7.39
2023-03-27T10:09:40.954Z,7.38
2023-03-27T10:11:49.539Z,7.67
2023-03-27T10:14:00.810Z,8.32
2023-03-27T10:16:07.027Z,8.66
2023-03-27T10:18:27.070Z,8.92
2023-03-27T10:20:39.139Z,9.38
2023-03-27T10:22:43.575Z,9.22
2023-03-27T10:24:48.274Z,8.92
2023-03-27T10:27:26.207Z,8.49
2023-03-27T10:29:47.820Z,8.23
2023-03-27T10:31:53.905Z,8.19
2023-03-27T10:34:32.427Z,8.46
2023-03-27T10:36:48.425Z,8.73
2023-03-27T10:38:58.533Z,8.86
2023-03-27T10:41:14.548Z,9.44
2023-03-27T10:43:31.407Z,9.63
2023-03-27T10:45:42.313Z,9.67
2023-03-27T10:47:48.540Z,9.53
2023-03-27T10:50:02.260Z,9.64
2023-03-27T10:52:22.744Z,10.14
2023-03-27T10:55:04.502Z,9.65
2023-03-27T10:57:13.969Z,9.33
2023-03-27T10:59:38.383Z,9.12
2023-03-27T11:01:53.209Z,9.09
2023-03-27T11:04:03.323Z,8.96
2023-03-27T11:06:13.959Z,8.58
2023-03-27T11:08:24.227Z,8.39
2023-03-27T11:10:32.287Z,8.31
2023-03-27T11:12:37.863Z,8.57
2023-03-27T11:14:49.286Z,8.35
2023-03-27T11:16:59.358Z,8.24
2023-03-27T11:19:41.162Z,8.56
2023-03-27T11:22:08.559Z,8.44
2023-03-27T11:24:23.514Z,8.51
2023-03-27T11:26:36.600Z,8.39
2023-03-27T11:28:44.762Z,8.57
2023-03-27T11:30:52.165Z,8.57
2023-03-27T11:33:09.262Z,8.64
2023-03-27T11:35:14.940Z,8.85
2023-03-27T11:37:43.221Z,9.04
2023-03-27T11:39:53.065Z,9.07
2023-03-27T11:41:59.720Z,9.30
2023-03-27T11:44:03.938Z,9.58
2023-03-27T11:46:39.480Z,9.40
2023-03-27T11:49:05.488Z,9.02
2023-03-27T11:51:17.448Z,8.74
2023-03-27T11:53:33.444Z,8.46
2023-03-27T11:56:08.802Z,8.15
2023-03-27T11:58:26.973Z,7.96
2023-03-27T12:00:36.308Z,7.82
2023-03-27T12:03:06.810Z,7.76
2023-03-27T12:05:25.056Z,8.15
2023-03-27T12:07:49.921Z,8.52
2023-03-27T12:10:06.238Z,9.11
2023-03-27T12:12:57.346Z,9.21
2023-03-27T12:15:15.630Z,8.99
2023-03-27T12:17:33.743Z,9.07
2023-03-27T12:20:06.761Z,8.90
2023-03-27T12:22:24.574Z,8.87
2023-03-27T12:24:40.598Z,8.89
2023-03-27T12:27:20.787Z,8.93
2023-03-27T12:29:49.390Z,9.19
2023-03-27T12:32:07.778Z,9.42
2023-03-27T12:34:27.716Z,9.61
2023-03-27T12:36:38.583Z,9.71
2023-03-27T12:38:43.626Z,9.55
2023-03-27T12:40:50.894Z,9.31
2023-03-27T12:42:55.968Z,8.91
2023-03-27T12:45:14.649Z,8.33
2023-03-27T12:47:24.826Z,8.14
2023-03-27T12:49:48.151Z,7.66
2023-03-27T12:52:06.108Z,7.34
2023-03-27T12:54:29.879Z,7.36
2023-03-27T12:56:39.778Z,7.45
2023-03-27T12:58:43.818Z,7.37
2023-03-27T13:01:00.136Z,7.28
2023-03-27T13:03:56.586Z,7.22
2023-03-27T13:06:18.686Z,7.53
2023-03-27T13:08:39.802Z,7.71
2023-03-27T13:10:58.772Z,7.95
2023-03-27T13:13:19.989Z,8.17
2023-03-27T13:15:38.166Z,8.28
2023-03-27T13:18:01.121Z,8.39
2023-03-27T13:20:20.577Z,8.42
2023-03-27T13:23:08.244Z,8.44
2023-03-27T13:25:31.553Z,8.55
2023-03-27T13:27:46.509Z,8.75
2023-03-27T13:29:51.412Z,8.94
2023-03-27T13:32:03.388Z,9.12
2023-03-27T13:34:14.900Z,9.13
2023-03-27T13:36:24.472Z,9.05
2023-03-27T13:39:13.701Z,9.03
2023-03-27T13:41:52.073Z,9.17
2023-03-27T13:44:01.669Z,9.24
2023-03-27T13:46:19.003Z,9.25
2023-03-27T13:49:14.141Z,9.22
2023-03-27T13:51:45.790Z,9.12
2023-03-27T13:54:22.636Z,8.72
2023-03-27T13:56:38.931Z,8.31
2023-03-27T13:59:11.889Z,8.03
2023-03-27T14:01:28.384Z,7.78
2023-03-27T14:04:10.287Z,7.71
2023-03-27T14:06:42.449Z,7.49
2023-03-27T14:08:53.157Z,7.51
2023-03-27T14:11:40.552Z,7.91
2023-03-27T14:13:59.662Z,8.28
2023-03-27T14:16:35.197Z,8.44
2023-03-27T14:19:16.618Z,8.52
2023-03-27T14:21:35.730Z,8.59
2023-03-27T14:23:50.368Z,8.47
2023-03-27T14:26:18.555Z,8.46
2023-03-27T14:28:31.622Z,8.52
2023-03-27T14:30:45.214Z,8.57
2023-03-27T14:33:08.278Z,8.42
2023-03-27T14:35:33.278Z,8.34
2023-03-27T14:37:41.828Z,8.43
2023-03-27T14:40:00.690Z,8.62
2023-03-27T14:42:17.423Z,8.76
2023-03-27T14:44:25.012Z,8.97
2023-03-27T14:46:30.241Z,9.18
2023-03-27T14:48:40.573Z,9.25
2023-03-27T14:50:46.323Z,9.43
2023-03-27T14:52:53.096Z,9.31
2023-03-27T14:54:57.853Z,9.31
2023-03-27T14:57:09.187Z,9.24
2023-03-27T14:59:23.692Z,9.16
2023-03-27T15:01:35.104Z,9.31
2023-03-27T15:03:39.930Z,9.42
2023-03-27T15:05:57.373Z,9.48
2023-03-27T15:08:03.572Z,9.53
2023-03-27T15:10:32.988Z,9.62
2023-03-27T15:12:38.475Z,9.65
2023-03-27T15:14:49.588Z,9.71
2023-03-27T15:16:58.840Z,9.94
2023-03-27T15:19:09.833Z,9.71
2023-03-27T15:21:19.848Z,9.72
2023-03-27T15:23:28.453Z,9.79
2023-03-27T15:25:38.001Z,9.85
2023-03-27T15:27:43.183Z,9.94
2023-03-27T15:29:50.858Z,9.88
2023-03-27T15:31:59.671Z,9.71
2023-03-27T15:34:08.237Z,9.48
2023-03-27T15:36:26.567Z,9.24
2023-03-27T15:38:33.069Z,9.56
2023-03-27T15:40:42.931Z,9.50
2023-03-27T15:42:47.763Z,9.55
2023-03-27T15:44:50.519Z,9.58
2023-03-27T15:46:57.916Z,9.61
2023-03-27T15:49:20.457Z,9.60
2023-03-27T15:51:30.860Z,9.66
2023-03-27T15:53:36.589Z,9.72
2023-03-27T15:55:42.222Z,9.89
2023-03-27T15:57:46.324Z,9.81
2023-03-27T15:59:52.434Z,9.79
2023-03-27T16:02:04.076Z,9.93
2023-03-27T16:04:09.758Z,9.90
2023-03-27T16:06:23.491Z,9.77
2023-03-27T16:08:32.417Z,9.87
2023-03-27T16:10:35.487Z,9.95
2023-03-27T16:12:51.913Z,9.81
2023-03-27T16:14:58.066Z,9.66
2023-03-27T16:17:20.478Z,9.51
2023-03-27T16:19:23.388Z,9.59
2023-03-27T16:21:28.076Z,9.47
2023-03-27T16:23:31.139Z,9.43
2023-03-27T16:25:34.945Z,9.46
2023-03-27T16:27:39.061Z,9.38
2023-03-27T16:29:41.985Z,9.42
2023-03-27T16:31:45.076Z,9.44
2023-03-27T16:33:49.357Z,9.19
2023-03-27T16:35:52.475Z,9.26
2023-03-27T16:37:56.382Z,9.30
2023-03-27T16:39:59.249Z,9.28
2023-03-27T16:42:02.077Z,9.29
2023-03-27T16:44:05.005Z,9.06
2023-03-27T16:46:08.152Z,9.22
2023-03-27T16:48:13.284Z,9.27
2023-03-27T16:50:20.418Z,9.41
2023-03-27T16:52:23.178Z,9.14
2023-03-27T16:54:26.340Z,9.12
2023-03-27T16:56:29.078Z,9.11
2023-03-27T16:58:31.862Z,8.94
2023-03-27T17:00:35.081Z,8.86
2023-03-27T17:02:38.108Z,8.89
2023-03-27T17:04:43.737Z,8.96
2023-03-27T17:06:48.038Z,8.94
2023-03-27T17:08:55.086Z,8.89
2023-03-27T17:11:03.062Z,8.60
2023-03-27T17:13:05.936Z,8.70
2023-03-27T17:15:10.120Z,8.66
2023-03-27T17:17:12.928Z,8.52
2023-03-27T17:19:15.847Z,8.55
2023-03-27T17:21:18.633Z,8.55
2023-03-27T17:23:23.069Z,8.54
2023-03-27T17:25:26.311Z,8.35
2023-03-27T17:27:29.139Z,8.29
2023-03-27T17:29:31.949Z,8.27
2023-03-27T17:31:35.296Z,8.36
2023-03-27T17:33:38.118Z,8.46
2023-03-27T17:35:41.408Z,8.55
2023-03-27T17:37:44.232Z,8.43
2023-03-27T17:39:48.777Z,8.54
2023-03-27T17:41:51.809Z,8.29
2023-03-27T17:43:54.563Z,8.21
2023-03-27T17:45:57.512Z,7.93
2023-03-27T17:48:00.512Z,7.74
2023-03-27T17:50:03.350Z,7.56
2023-03-27T17:52:11.281Z,7.67
2023-03-27T17:54:14.562Z,7.32
2023-03-27T17:56:18.688Z,7.24
2023-03-27T17:58:22.124Z,7.06
2023-03-27T18:00:26.012Z,7.09
2023-03-27T18:02:28.892Z,7.17
2023-03-27T18:04:33.054Z,6.97
2023-03-27T18:06:36.529Z,6.97
2023-03-27T18:08:39.430Z,6.82
2023-03-27T18:10:45.331Z,6.82
2023-03-27T18:12:49.567Z,6.84
2023-03-27T18:14:52.393Z,6.77
2023-03-27T18:16:55.228Z,6.59
2023-03-27T18:18:58.014Z,6.60
2023-03-27T18:21:00.904Z,6.53
2023-03-27T18:23:03.746Z,6.37
2023-03-27T18:25:08.624Z,6.37
2023-03-27T18:27:11.237Z,6.45
2023-03-27T18:29:15.552Z,6.62
2023-03-27T18:31:18.799Z,6.75
2023-03-27T18:33:21.669Z,6.82
2023-03-27T18:35:24.972Z,7.01
2023-03-27T18:37:28.219Z,6.86
2023-03-27T18:39:31.482Z,6.96
2023-03-27T18:41:35.436Z,7.05
2023-03-27T18:43:38.356Z,7.22
2023-03-27T18:45:42.719Z,7.07
2023-03-27T18:47:46.162Z,6.97
2023-03-27T18:49:48.991Z,6.85
2023-03-27T18:51:51.863Z,6.72
2023-03-27T18:53:54.591Z,6.70
2023-03-27T18:55:58.929Z,6.89
2023-03-27T18:58:01.902Z,6.86
2023-03-27T19:00:08.820Z,6.62
2023-03-27T19:02:14.267Z,6.67
2023-03-27T19:04:17.490Z,6.68
2023-03-27T19:06:25.301Z,6.74
2023-03-27T19:08:28.039Z,6.58
2023-03-27T19:10:30.833Z,6.61
2023-03-27T19:12:52.011Z,6.58
2023-03-27T19:15:34.177Z,6.50
2023-03-27T19:18:20.108Z,6.33
2023-03-27T19:20:44.886Z,6.31
2023-03-27T19:22:56.534Z,6.25
2023-03-27T19:25:03.710Z,6.22
2023-03-27T19:27:06.687Z,6.15
2023-03-27T19:29:26.052Z,6.09
2023-03-27T19:31:29.072Z,6.15
2023-03-27T19:33:36.085Z,6.12
2023-03-27T19:35:41.338Z,6.07
2023-03-27T19:37:44.137Z,6.15
2023-03-27T19:39:47.127Z,6.11
2023-03-27T19:41:49.951Z,6.15
2023-03-27T19:43:52.785Z,6.16
2023-03-27T19:46:08.109Z,6.07
2023-03-27T19:48:18.265Z,6.07
2023-03-27T19:50:22.624Z,6.05
2023-03-27T19:52:46.159Z,6.01
2023-03-27T19:54:54.935Z,5.98
2023-03-27T19:56:59.898Z,5.99
2023-03-27T19:59:03.628Z,5.90
2023-03-27T20:01:06.825Z,5.86
2023-03-27T20:03:12.850Z,5.87
2023-03-27T20:05:15.934Z,5.88
2023-03-27T20:07:20.295Z,5.94
2023-03-27T20:09:23.095Z,5.93
2023-03-27T20:11:26.973Z,5.92
2023-03-27T20:13:29.750Z,5.93
2023-03-27T20:15:32.562Z,5.94
2023-03-27T20:17:35.362Z,5.93
2023-03-27T20:19:38.154Z,5.92
2023-03-27T20:21:42.334Z,5.90
2023-03-27T20:23:53.556Z,5.93
2023-03-27T20:26:02.087Z,5.84
2023-03-27T20:28:06.968Z,5.83
2023-03-27T20:30:14.073Z,5.74
2023-03-27T20:32:17.002Z,5.71
2023-03-27T20:34:22.405Z,5.63
2023-03-27T20:36:26.158Z,5.57
2023-03-27T20:38:31.498Z,5.46
2023-03-27T20:40:52.761Z,5.38
2023-03-27T20:43:03.450Z,5.29
2023-03-27T20:45:07.914Z,5.31
2023-03-27T20:47:12.328Z,5.31
2023-03-27T20:51:30.191Z,5.28
2023-03-27T20:53:39.812Z,5.12
2023-03-27T20:55:53.405Z,5.14
2023-03-27T20:58:03.030Z,5.12
2023-03-27T21:00:08.047Z,5.10
2023-03-27T21:02:16.677Z,5.13
2023-03-27T21:04:19.553Z,5.17
2023-03-27T21:06:22.352Z,5.16
2023-03-27T21:08:25.685Z,5.17
2023-03-27T21:10:28.544Z,5.07
2023-03-27T21:12:33.703Z,5.01
2023-03-27T21:14:39.983Z,4.98
2023-03-27T21:16:43.123Z,5.02
2023-03-27T21:18:46.052Z,5.10
2023-03-27T21:20:48.852Z,5.21
2023-03-27T21:22:52.750Z,5.19
2023-03-27T21:24:55.747Z,5.13
2023-03-27T21:26:59.971Z,5.15
2023-03-27T21:29:04.495Z,5.18
2023-03-27T21:31:08.171Z,5.07
2023-03-27T21:33:11.474Z,5.03
2023-03-27T21:35:14.542Z,5.00
2023-03-27T21:37:17.335Z,5.05
2023-03-27T21:39:20.602Z,4.96
2023-03-27T21:41:23.796Z,4.93
2023-03-27T21:43:26.640Z,4.96
2023-03-27T21:45:31.641Z,4.96
2023-03-27T21:47:46.617Z,4.96
2023-03-27T21:49:50.642Z,4.97
2023-03-27T21:51:53.518Z,4.94
2023-03-27T21:53:56.296Z,5.04
2023-03-27T21:55:59.389Z,5.05
2023-03-27T21:58:02.451Z,5.09
2023-03-27T22:00:05.994Z,5.08
2023-03-27T22:02:16.937Z,5.10
2023-03-27T22:04:21.664Z,5.05
2023-03-27T22:06:25.432Z,4.98
2023-03-27T22:08:28.274Z,4.99
2023-03-27T22:10:31.655Z,4.97
2023-03-27T22:12:35.681Z,4.96
2023-03-27T22:14:38.455Z,4.95
2023-03-27T22:16:41.629Z,4.96
2023-03-27T22:18:46.066Z,4.97
2023-03-27T22:20:49.159Z,4.88
2023-03-27T22:22:51.993Z,4.82
2023-03-27T22:24:54.823Z,4.87
2023-03-27T22:26:57.847Z,4.96
2023-03-27T22:29:00.692Z,4.97
2023-03-27T22:31:04.472Z,4.97
2023-03-27T22:33:07.609Z,4.92
2023-03-27T22:35:13.169Z,4.85
2023-03-27T22:37:16.113Z,4.81
2023-03-27T22:39:18.989Z,4.79
2023-03-27T22:41:21.808Z,4.81
2023-03-27T22:43:24.593Z,4.86
2023-03-27T22:45:27.378Z,4.87
2023-03-27T22:47:31.407Z,4.85
2023-03-27T22:49:36.083Z,4.84
2023-03-27T22:51:40.302Z,4.87
2023-03-27T22:53:43.088Z,4.90
2023-03-27T22:55:49.114Z,4.91
2023-03-27T22:57:51.867Z,4.81
2023-03-27T22:59:54.810Z,4.71
2023-03-27T23:01:57.679Z,4.58
2023-03-27T23:04:00.630Z,4.53
2023-03-27T23:06:03.587Z,4.52
2023-03-27T23:08:08.135Z,4.40
2023-03-27T23:10:11.276Z,4.39
2023-03-27T23:12:14.048Z,4.37
2023-03-27T23:14:17.279Z,4.31
2023-03-27T23:16:20.089Z,4.27
2023-03-27T23:18:25.310Z,4.25
2023-03-27T23:20:28.316Z,4.24
2023-03-27T23:22:31.096Z,4.25
2023-03-27T23:24:35.277Z,4.21
2023-03-27T23:26:38.094Z,4.18
2023-03-27T23:28:42.720Z,4.17
2023-03-27T23:30:53.376Z,4.12
2023-03-27T23:32:56.459Z,4.07
2023-03-27T23:34:59.487Z,3.99
2023-03-27T23:37:02.296Z,3.98
2023-03-27T23:39:05.325Z,4.01
2023-03-27T23:41:11.621Z,4.02
2023-03-27T23:43:14.420Z,4.01
2023-03-27T23:45:17.378Z,4.01
2023-03-27T23:47:20.378Z,4.02
2023-03-27T23:49:23.158Z,4.04
2023-03-27T23:51:26.306Z,4.05
2023-03-27T23:53:29.777Z,4.01
2023-03-27T23:55:32.570Z,4.05
2023-03-27T23:57:36.665Z,4.10
2023-03-27T23:59:39.535Z,4.13
